Aviation Digital Data Service (ADDS)

Output produced by METARs form (0841 UTC 24 March 2019)
found at http://www.aviationweather.gov/metar/data/
 
Forecast for: LSGG (GENEVA/COINTRIN , CH)
Text: TAF LSGG 240825Z 2409/2515 VRB03KT CAVOK TX18/2415Z TN01/2506Z TX14/2515Z
Forecast period: 0900 UTC 24 March 2019 to 1000 UTC 25 March 2019
Forecast type: FROM: standard forecast or significant change
Winds: variable direction winds at 3 MPH (3 knots; 1.5 m/s)
Visibility: 6 or more miles 10+ km)
Ceiling: unknown
Clouds: missing
Weather: no significant weather forecast for this period
Text: TEMPO 2415/2421 34010KT
Forecast period: 1500 to 2100 UTC 24 March 2019
Forecast type: TEMPORARY: The following changes expected for less than half the time period
Winds: from the NNW (340 degrees) at 12 MPH (10 knots; 5.1 m/s)
Visibility: missing
Ceiling: unknown
Clouds: missing
Weather: no significant weather forecast for this period
Text: BECMG 2510/2512 05012G22KT
Forecast period: 1000 to 1500 UTC 25 March 2019
Forecast type: BECOMING: Conditions expected to become as follows by 1200 UTC 25 March 2019
Winds: from the NE (50 degrees) at 14 MPH (12 knots; 6.2 m/s)
gusting to 25 MPH (22 knots; 11.3 m/s)
Visibility: 6 or more miles 10+ km)
Ceiling: unknown
Clouds: missing
Weather: no significant weather forecast for this period